Time;durP1;ratioP1;P1;durP2;ratioP2;P2;SDS_P1;SDS_P2;PMS_P1;PMS_P2;Temp;Humidity;BMP_temperature;BMP_pressure;BME280_temperature;BME280_humidity;BME280_pressure;Samples;Min_cycle;Max_cycle;Signal;HPM_P1;HPM_P2
2022/12/09 00:01:25;;;;;;;11.95;9.25;;;;;;;;;;5099804;28;20251;-87
2022/12/09 00:03:54;;;;;;;6.88;5.90;;;;;;;;;;5098429;28;20200;-87
2022/12/09 00:06:24;;;;;;;6.38;5.78;;;;;;;;;;5098880;28;20232;-88
2022/12/09 00:08:52;;;;;;;6.63;6.10;;;;;;;;;;5099536;28;20192;-87
2022/12/09 00:11:20;;;;;;;8.05;7.20;;;;;;;;;;5100018;28;20216;-87
2022/12/09 00:13:49;;;;;;;5.43;4.93;;;;;;;;;;5100421;28;20222;-87
2022/12/09 00:16:18;;;;;;;8.00;7.20;;;;;;;;;;5100035;28;20228;-87
2022/12/09 00:18:47;;;;;;;6.70;5.97;;;;;;;;;;5099119;28;20306;-88
2022/12/09 00:21:17;;;;;;;7.00;6.22;;;;;;;;;;5100164;28;20254;-87
2022/12/09 00:23:45;;;;;;;6.65;5.93;;;;;;;;;;5099274;28;20184;-87
2022/12/09 00:26:13;;;;;;;10.15;7.85;;;;;;;;;;5099014;28;20241;-87
2022/12/09 00:28:41;;;;;;;15.18;11.65;;;;;;;;;;5099430;28;20665;-87
2022/12/09 00:31:10;;;;;;;11.13;9.98;;;;;;;;;;5100440;28;20307;-88
2022/12/09 00:33:39;;;;;;;13.35;10.07;;;;;;;;;;5099385;28;20232;-87
2022/12/09 00:36:08;;;;;;;9.00;7.78;;;;;;;;;;5098688;28;20290;-87
2022/12/09 00:38:36;;;;;;;7.47;6.70;;;;;;;;;;5095691;28;20225;-87
2022/12/09 00:41:04;;;;;;;6.15;5.55;;;;;;;;;;5078846;28;20224;-86
2022/12/09 00:43:32;;;;;;;7.55;6.57;;;;;;;;;;5079498;28;20228;-87
2022/12/09 00:46:00;;;;;;;6.15;4.90;;;;;;;;;;5079448;28;20646;-86
2022/12/09 00:48:28;;;;;;;7.22;5.40;;;;;;;;;;5078984;28;20707;-87
2022/12/09 00:50:57;;;;;;;10.02;8.18;;;;;;;;;;5079338;28;20299;-87
2022/12/09 00:53:25;;;;;;;8.77;7.50;;;;;;;;;;5077776;28;20287;-87
2022/12/09 00:55:52;;;;;;;10.32;9.23;;;;;;;;;;5078375;28;20273;-87
2022/12/09 00:58:20;;;;;;;10.10;8.88;;;;;;;;;;5078380;28;20220;-87
2022/12/09 01:00:48;;;;;;;9.65;8.65;;;;;;;;;;5078193;28;20197;-86
2022/12/09 01:03:17;;;;;;;8.23;7.43;;;;;;;;;;5077316;28;20232;-87
2022/12/09 01:05:45;;;;;;;7.88;6.80;;;;;;;;;;5077886;28;20208;-87
2022/12/09 01:08:15;;;;;;;7.93;7.18;;;;;;;;;;5078072;28;20287;-87
2022/12/09 01:10:44;;;;;;;10.23;8.65;;;;;;;;;;5098374;28;20242;-88
2022/12/09 01:13:12;;;;;;;10.13;7.90;;;;;;;;;;5098857;28;20279;-88
2022/12/09 01:15:40;;;;;;;11.98;9.18;;;;;;;;;;5099015;28;20208;-87
2022/12/09 01:18:08;;;;;;;11.73;10.23;;;;;;;;;;5098259;28;20239;-87
2022/12/09 01:20:36;;;;;;;10.20;9.10;;;;;;;;;;5098749;28;20200;-87
2022/12/09 01:23:04;;;;;;;8.70;7.07;;;;;;;;;;5098519;28;20287;-87
2022/12/09 01:25:33;;;;;;;7.75;6.57;;;;;;;;;;5099035;28;20310;-88
2022/12/09 01:28:01;;;;;;;6.88;5.68;;;;;;;;;;5098721;28;20290;-88
2022/12/09 01:30:28;;;;;;;8.18;7.32;;;;;;;;;;5098566;28;20705;-87
2022/12/09 01:32:56;;;;;;;7.68;6.88;;;;;;;;;;5099272;28;20200;-87
2022/12/09 01:35:23;;;;;;;8.50;7.28;;;;;;;;;;5098762;28;20243;-88
2022/12/09 01:37:51;;;;;;;7.13;5.88;;;;;;;;;;5098231;28;20224;-88
2022/12/09 01:40:19;;;;;;;5.43;5.00;;;;;;;;;;5097752;28;20255;-87
2022/12/09 01:42:50;;;;;;;5.45;4.90;;;;;;;;;;5097851;28;20303;-87
2022/12/09 01:45:48;;;;;;;5.93;5.43;;;;;;;;;;5097548;28;20684;-86
2022/12/09 01:48:17;;;;;;;5.20;4.70;;;;;;;;;;5035299;28;20206;-87
2022/12/09 01:50:49;;;;;;;4.82;4.38;;;;;;;;;;5084861;28;20655;-88
2022/12/09 01:53:18;;;;;;;6.80;5.32;;;;;;;;;;5097629;28;20196;-87
2022/12/09 01:55:46;;;;;;;5.95;5.35;;;;;;;;;;5098978;28;20211;-87
2022/12/09 01:58:16;;;;;;;4.18;3.80;;;;;;;;;;5097158;28;20669;-87
2022/12/09 02:00:43;;;;;;;5.18;4.68;;;;;;;;;;5097625;28;20596;-87
2022/12/09 02:03:11;;;;;;;6.00;5.40;;;;;;;;;;5097630;28;20291;-87
2022/12/09 02:05:39;;;;;;;4.75;4.30;;;;;;;;;;5097522;28;20231;-87
2022/12/09 02:08:10;;;;;;;5.25;4.75;;;;;;;;;;5097397;28;20219;-87
2022/12/09 02:10:44;;;;;;;5.60;5.03;;;;;;;;;;5077304;28;20723;-87
2022/12/09 02:13:22;;;;;;;4.35;3.95;;;;;;;;;;5077277;28;20261;-87
2022/12/09 02:15:54;;;;;;;5.47;4.97;;;;;;;;;;5081464;28;20290;-87
2022/12/09 02:18:28;;;;;;;5.22;4.45;;;;;;;;;;5080786;28;20196;-87
2022/12/09 02:21:00;;;;;;;5.70;4.78;;;;;;;;;;5080187;28;20228;-87
2022/12/09 02:23:34;;;;;;;4.80;4.35;;;;;;;;;;5080258;28;20181;-87
2022/12/09 02:26:13;;;;;;;5.35;4.47;;;;;;;;;;5079969;28;20271;-87
2022/12/09 02:29:29;;;;;;;8.38;7.47;;;;;;;;;;5080783;28;20208;-87
2022/12/09 02:32:18;;;;;;;6.93;6.13;;;;;;;;;;5081418;28;20232;-87
2022/12/09 02:34:55;;;;;;;8.82;7.70;;;;;;;;;;5081699;28;20278;-87
2022/12/09 02:37:27;;;;;;;5.85;5.25;;;;;;;;;;5081461;28;20189;-87
2022/12/09 02:39:59;;;;;;;4.40;3.97;;;;;;;;;;5095635;28;20270;-87
2022/12/09 02:42:31;;;;;;;7.43;6.82;;;;;;;;;;5101720;28;20647;-87
2022/12/09 02:44:59;;;;;;;7.53;6.75;;;;;;;;;;5102275;28;20192;-87
2022/12/09 02:47:29;;;;;;;10.00;7.93;;;;;;;;;;5101891;28;20208;-87
2022/12/09 02:50:04;;;;;;;9.93;8.73;;;;;;;;;;5101391;28;20243;-87
2022/12/09 02:52:33;;;;;;;8.30;7.43;;;;;;;;;;5100779;28;20241;-88
2022/12/09 02:55:02;;;;;;;9.65;8.65;;;;;;;;;;5101676;28;20196;-87
2022/12/09 02:57:31;;;;;;;10.30;8.80;;;;;;;;;;5100858;28;20207;-87
2022/12/09 03:00:04;;;;;;;9.52;8.02;;;;;;;;;;5100420;28;20279;-87
2022/12/09 03:02:34;;;;;;;8.07;7.30;;;;;;;;;;5101225;28;20208;-87
2022/12/09 03:05:13;;;;;;;8.50;7.57;;;;;;;;;;5099984;28;20215;-87
2022/12/09 03:07:44;;;;;;;10.45;7.95;;;;;;;;;;5100954;28;20256;-87
2022/12/09 03:10:18;;;;;;;7.45;6.28;;;;;;;;;;5101049;28;20224;-88
2022/12/09 03:12:58;;;;;;;4.50;4.10;;;;;;;;;;5101488;28;20224;-87
2022/12/09 03:15:28;;;;;;;7.15;6.43;;;;;;;;;;5102732;28;20244;-87
2022/12/09 03:17:58;;;;;;;5.47;4.97;;;;;;;;;;5103136;28;20648;-87
2022/12/09 03:20:29;;;;;;;7.82;6.25;;;;;;;;;;5103080;28;20227;-85
2022/12/09 03:23:00;;;;;;;8.60;7.70;;;;;;;;;;5103084;28;20212;-90
2022/12/09 03:25:32;;;;;;;8.65;7.38;;;;;;;;;;5106817;28;20187;-89
2022/12/09 03:28:04;;;;;;;7.28;6.55;;;;;;;;;;5107894;28;20212;-89
2022/12/09 03:30:33;;;;;;;6.28;5.68;;;;;;;;;;5107831;28;20212;-88
2022/12/09 03:33:01;;;;;;;5.82;5.32;;;;;;;;;;5102269;28;20265;-88
2022/12/09 03:35:33;;;;;;;7.88;7.07;;;;;;;;;;5101869;28;20216;-88
2022/12/09 03:38:03;;;;;;;8.18;7.35;;;;;;;;;;5100687;28;20223;-88
2022/12/09 03:40:32;;;;;;;5.18;4.40;;;;;;;;;;5099877;28;20232;-88
2022/12/09 03:43:03;;;;;;;3.90;3.60;;;;;;;;;;5100578;28;20313;-88
2022/12/09 03:45:32;;;;;;;5.32;4.82;;;;;;;;;;5099335;28;20307;-88
2022/12/09 03:48:00;;;;;;;4.28;3.97;;;;;;;;;;5100140;28;20609;-88
2022/12/09 03:50:40;;;;;;;8.05;7.25;;;;;;;;;;5099630;28;20200;-88
2022/12/09 03:53:11;;;;;;;8.23;7.35;;;;;;;;;;5099304;28;20279;-89
2022/12/09 03:55:45;;;;;;;10.40;8.52;;;;;;;;;;5099036;28;20349;-88
2022/12/09 03:58:13;;;;;;;7.28;6.57;;;;;;;;;;5099410;28;20271;-88
2022/12/09 04:00:41;;;;;;;6.47;5.70;;;;;;;;;;5099892;28;20742;-88
2022/12/09 04:03:08;;;;;;;6.43;5.72;;;;;;;;;;5100053;28;20657;-88
2022/12/09 04:05:37;;;;;;;9.40;7.18;;;;;;;;;;5098640;28;20205;-87
2022/12/09 04:08:05;;;;;;;8.15;7.32;;;;;;;;;;5098682;28;20208;-88
2022/12/09 04:10:33;;;;;;;6.75;5.72;;;;;;;;;;5098493;28;20232;-88
2022/12/09 04:13:00;;;;;;;6.47;5.88;;;;;;;;;;5099072;28;20196;-88
2022/12/09 04:15:28;;;;;;;6.40;5.82;;;;;;;;;;5098842;28;20228;-88
2022/12/09 04:17:55;;;;;;;4.32;3.88;;;;;;;;;;5098134;28;20369;-88
2022/12/09 04:20:23;;;;;;;6.05;5.43;;;;;;;;;;5098353;28;20228;-88
2022/12/09 04:22:52;;;;;;;4.85;4.45;;;;;;;;;;5097634;28;20319;-88
2022/12/09 04:25:19;;;;;;;3.80;3.50;;;;;;;;;;5098514;28;20233;-88
2022/12/09 04:27:47;;;;;;;6.22;4.93;;;;;;;;;;5099285;28;20237;-89
2022/12/09 04:30:14;;;;;;;4.45;4.05;;;;;;;;;;5098588;28;20653;-89
2022/12/09 04:32:42;;;;;;;4.32;3.92;;;;;;;;;;5097686;28;20783;-89
2022/12/09 04:35:10;;;;;;;8.60;7.72;;;;;;;;;;5097733;28;20204;-88
2022/12/09 04:37:38;;;;;;;7.35;6.65;;;;;;;;;;5096795;28;20200;-88
2022/12/09 04:40:08;;;;;;;17.65;6.93;;;;;;;;;;5081801;28;20260;-88
2022/12/09 04:42:36;;;;;;;5.60;5.10;;;;;;;;;;5077770;28;20250;-88
2022/12/09 04:45:03;;;;;;;4.68;4.18;;;;;;;;;;5077671;28;20465;-88
2022/12/09 04:47:32;;;;;;;7.20;6.25;;;;;;;;;;5077636;28;20263;-88
2022/12/09 04:50:00;;;;;;;7.53;6.28;;;;;;;;;;5077422;28;20301;-88
2022/12/09 04:52:27;;;;;;;8.82;7.20;;;;;;;;;;5077435;28;20324;-88
2022/12/09 04:54:55;;;;;;;5.05;4.50;;;;;;;;;;5078138;28;20270;-88
2022/12/09 04:57:24;;;;;;;4.13;3.83;;;;;;;;;;5078712;28;20251;-88
2022/12/09 04:59:51;;;;;;;6.70;4.40;;;;;;;;;;5077843;28;20292;-88
2022/12/09 05:02:19;;;;;;;6.00;5.40;;;;;;;;;;5077956;28;20224;-88
2022/12/09 05:04:46;;;;;;;6.63;6.03;;;;;;;;;;5078644;28;20653;-88
2022/12/09 05:07:14;;;;;;;5.72;5.22;;;;;;;;;;5077863;28;20673;-88
2022/12/09 05:09:42;;;;;;;6.40;5.80;;;;;;;;;;5090423;28;20667;-88
2022/12/09 05:12:10;;;;;;;7.22;5.88;;;;;;;;;;5097930;28;20267;-89
2022/12/09 05:14:39;;;;;;;6.88;5.97;;;;;;;;;;5097451;28;20291;-88
2022/12/09 05:17:07;;;;;;;6.57;5.85;;;;;;;;;;5097612;28;20260;-88
2022/12/09 05:19:34;;;;;;;5.55;4.85;;;;;;;;;;5098048;28;20211;-88
2022/12/09 05:22:02;;;;;;;4.88;4.43;;;;;;;;;;5096661;28;20310;-88
2022/12/09 05:24:29;;;;;;;6.70;6.07;;;;;;;;;;5097724;28;20539;-88
2022/12/09 05:26:57;;;;;;;6.75;6.03;;;;;;;;;;5098525;28;20293;-89
2022/12/09 05:29:24;;;;;;;6.28;5.63;;;;;;;;;;5096659;28;20220;-88
2022/12/09 05:31:53;;;;;;;6.18;5.57;;;;;;;;;;5096047;28;20724;-89
2022/12/09 05:34:21;;;;;;;9.55;6.25;;;;;;;;;;5095940;28;20287;-88
2022/12/09 05:36:48;;;;;;;7.15;6.45;;;;;;;;;;5096057;28;20238;-89
2022/12/09 05:39:16;;;;;;;6.43;5.82;;;;;;;;;;5095789;28;20197;-89
2022/12/09 05:41:45;;;;;;;6.30;5.70;;;;;;;;;;5096072;28;20310;-88
2022/12/09 05:44:13;;;;;;;8.20;6.82;;;;;;;;;;5097322;28;20230;-88
2022/12/09 05:46:40;;;;;;;6.68;6.03;;;;;;;;;;5097112;28;20200;-88
2022/12/09 05:49:09;;;;;;;5.70;5.20;;;;;;;;;;5098410;28;20688;-88
2022/12/09 05:51:37;;;;;;;6.43;5.82;;;;;;;;;;5101663;28;20232;-88
2022/12/09 05:54:06;;;;;;;6.68;4.72;;;;;;;;;;5101614;28;20287;-88
2022/12/09 05:56:34;;;;;;;5.50;5.00;;;;;;;;;;5102391;28;20704;-89
2022/12/09 05:59:01;;;;;;;5.15;4.65;;;;;;;;;;5101368;28;20192;-88
2022/12/09 06:01:29;;;;;;;5.90;5.40;;;;;;;;;;5102148;28;20689;-88
2022/12/09 06:03:57;;;;;;;7.32;5.85;;;;;;;;;;5100729;28;20684;-87
2022/12/09 06:06:28;;;;;;;5.85;5.35;;;;;;;;;;5101552;28;20616;-87
2022/12/09 06:08:57;;;;;;;5.13;4.63;;;;;;;;;;5100653;28;20345;-88
2022/12/09 06:11:26;;;;;;;4.10;3.80;;;;;;;;;;5100653;28;20247;-89
2022/12/09 06:13:54;;;;;;;5.00;4.60;;;;;;;;;;5100687;28;20283;-88
2022/12/09 06:16:23;;;;;;;4.90;4.40;;;;;;;;;;5101802;28;20286;-88
2022/12/09 06:18:50;;;;;;;5.15;4.68;;;;;;;;;;5100643;28;20281;-88
2022/12/09 06:21:20;;;;;;;6.60;5.72;;;;;;;;;;5100981;28;20576;-88
2022/12/09 06:23:50;;;;;;;6.90;5.85;;;;;;;;;;5101650;28;20199;-88
2022/12/09 06:26:19;;;;;;;5.55;5.05;;;;;;;;;;5101511;28;20208;-87
2022/12/09 06:28:46;;;;;;;6.68;5.78;;;;;;;;;;5100480;28;20208;-88
2022/12/09 06:31:15;;;;;;;4.93;4.32;;;;;;;;;;5101269;28;20648;-88
2022/12/09 06:33:42;;;;;;;5.30;4.85;;;;;;;;;;5100124;28;20614;-88
2022/12/09 06:36:11;;;;;;;5.65;4.97;;;;;;;;;;5100077;28;20203;-88
2022/12/09 06:38:38;;;;;;;6.22;5.13;;;;;;;;;;5097864;28;20263;-88
2022/12/09 06:41:09;;;;;;;4.82;4.05;;;;;;;;;;5098993;28;20248;-88
2022/12/09 06:43:39;;;;;;;5.22;4.82;;;;;;;;;;5097078;28;20718;-88
2022/12/09 06:46:12;;;;;;;7.03;5.45;;;;;;;;;;5098500;28;20219;-88
2022/12/09 06:48:41;;;;;;;5.10;4.35;;;;;;;;;;5089011;28;20221;-88
2022/12/09 06:51:09;;;;;;;4.43;4.05;;;;;;;;;;5077711;28;20229;-88
2022/12/09 06:53:36;;;;;;;4.53;4.05;;;;;;;;;;5078335;28;20292;-88
2022/12/09 06:56:05;;;;;;;4.90;4.38;;;;;;;;;;5078742;28;20197;-88
2022/12/09 06:58:34;;;;;;;6.00;4.93;;;;;;;;;;5077933;28;20226;-88
2022/12/09 07:01:07;;;;;;;5.70;5.18;;;;;;;;;;5078303;28;20312;-88
2022/12/09 07:03:34;;;;;;;6.47;5.43;;;;;;;;;;5078708;28;20618;-89
2022/12/09 07:06:02;;;;;;;6.65;5.53;;;;;;;;;;5076439;28;20236;-88
2022/12/09 07:08:30;;;;;;;7.20;6.50;;;;;;;;;;5083045;28;20247;-88
2022/12/09 07:10:57;;;;;;;5.45;4.95;;;;;;;;;;5096025;28;20270;-88
2022/12/09 07:13:25;;;;;;;5.78;5.28;;;;;;;;;;5096992;28;20220;-88
2022/12/09 07:15:54;;;;;;;5.43;4.93;;;;;;;;;;5098619;28;20687;-88
2022/12/09 07:18:21;;;;;;;6.97;6.28;;;;;;;;;;5098848;28;20221;-88
2022/12/09 07:20:49;;;;;;;8.60;6.75;;;;;;;;;;5098006;28;20200;-88
2022/12/09 07:23:17;;;;;;;8.32;7.45;;;;;;;;;;5100002;28;20250;-88
2022/12/09 07:25:44;;;;;;;9.80;7.43;;;;;;;;;;5098664;28;20235;-88
2022/12/09 07:28:12;;;;;;;10.85;9.75;;;;;;;;;;5098388;28;20196;-88
2022/12/09 07:30:39;;;;;;;10.77;8.65;;;;;;;;;;5098484;28;20291;-88
2022/12/09 07:33:08;;;;;;;10.18;8.32;;;;;;;;;;5098135;28;20200;-88
2022/12/09 07:35:36;;;;;;;7.82;7.03;;;;;;;;;;5098629;28;20561;-88
2022/12/09 07:38:03;;;;;;;8.38;7.07;;;;;;;;;;5098005;28;20224;-88
2022/12/09 07:40:31;;;;;;;8.95;8.02;;;;;;;;;;5098638;28;20698;-88
2022/12/09 07:42:58;;;;;;;7.50;6.53;;;;;;;;;;5098071;28;20264;-88
2022/12/09 07:45:26;;;;;;;6.43;5.60;;;;;;;;;;5098246;28;20232;-88
2022/12/09 07:47:53;;;;;;;7.47;6.25;;;;;;;;;;5097898;28;20250;-89
2022/12/09 07:50:22;;;;;;;7.18;5.95;;;;;;;;;;5098029;28;20204;-88
2022/12/09 07:52:50;;;;;;;7.20;6.03;;;;;;;;;;5098134;28;20259;-88
2022/12/09 07:55:17;;;;;;;6.50;5.60;;;;;;;;;;5098266;28;20610;-89
2022/12/09 07:57:45;;;;;;;8.40;7.60;;;;;;;;;;5097724;28;20635;-88
2022/12/09 08:00:14;;;;;;;8.63;6.78;;;;;;;;;;5098039;28;20223;-88
2022/12/09 08:02:42;;;;;;;7.03;6.03;;;;;;;;;;5097434;28;20259;-88
2022/12/09 08:05:10;;;;;;;8.27;6.72;;;;;;;;;;5097168;28;20261;-88
2022/12/09 08:07:39;;;;;;;7.72;6.30;;;;;;;;;;5097578;28;20291;-88
2022/12/09 08:10:08;;;;;;;6.35;5.75;;;;;;;;;;5097250;28;20212;-88
2022/12/09 08:12:36;;;;;;;6.03;4.88;;;;;;;;;;5096657;28;20360;-88
2022/12/09 08:15:04;;;;;;;7.95;7.07;;;;;;;;;;5097468;28;20652;-88
2022/12/09 08:17:32;;;;;;;11.13;8.30;;;;;;;;;;5097765;28;20200;-88
2022/12/09 08:19:59;;;;;;;7.97;7.10;;;;;;;;;;5097224;28;20227;-88
2022/12/09 08:22:27;;;;;;;6.53;5.82;;;;;;;;;;5095933;28;20257;-88
2022/12/09 08:24:56;;;;;;;6.32;5.28;;;;;;;;;;5096357;28;20264;-88
2022/12/09 08:27:24;;;;;;;5.80;5.30;;;;;;;;;;5096005;28;20262;-88
2022/12/09 08:29:51;;;;;;;5.32;4.82;;;;;;;;;;5096613;28;20285;-88
2022/12/09 08:32:19;;;;;;;6.47;5.85;;;;;;;;;;5097324;28;20772;-88
2022/12/09 08:34:46;;;;;;;6.65;6.05;;;;;;;;;;5097212;28;20236;-89
2022/12/09 08:37:14;;;;;;;6.78;6.07;;;;;;;;;;5097027;28;20257;-88
2022/12/09 08:39:41;;;;;;;9.70;8.18;;;;;;;;;;5096454;28;20287;-88
2022/12/09 08:42:10;;;;;;;9.90;7.63;;;;;;;;;;5095524;28;20967;-88
2022/12/09 08:44:38;;;;;;;8.43;7.50;;;;;;;;;;5095985;28;20260;-88
2022/12/09 08:47:06;;;;;;;7.50;6.80;;;;;;;;;;5095886;28;20560;-88
2022/12/09 08:49:34;;;;;;;6.88;6.13;;;;;;;;;;5095480;28;20230;-89
2022/12/09 08:52:02;;;;;;;8.98;7.57;;;;;;;;;;5095873;28;20284;-89
2022/12/09 08:54:29;;;;;;;7.20;5.90;;;;;;;;;;5095346;28;20713;-89
2022/12/09 08:56:57;;;;;;;6.00;5.40;;;;;;;;;;5095652;28;20291;-89
2022/12/09 08:59:26;;;;;;;12.00;9.65;;;;;;;;;;5096188;28;20211;-89
2022/12/09 09:01:54;;;;;;;13.98;10.63;;;;;;;;;;5095998;28;20240;-88
2022/12/09 09:04:22;;;;;;;13.95;10.77;;;;;;;;;;5096817;28;20353;-88
2022/12/09 09:06:51;;;;;;;14.32;10.13;;;;;;;;;;5079434;28;20199;-89
2022/12/09 09:09:20;;;;;;;11.70;9.77;;;;;;;;;;5085645;28;20241;-88
2022/12/09 09:11:48;;;;;;;12.60;9.60;;;;;;;;;;5096410;28;20809;-89
2022/12/09 09:14:16;;;;;;;7.72;6.35;;;;;;;;;;5082295;28;20258;-89
2022/12/09 09:16:45;;;;;;;9.55;8.13;;;;;;;;;;5076322;28;20287;-88
2022/12/09 09:19:17;;;;;;;12.63;9.88;;;;;;;;;;5075774;28;20287;-88
2022/12/09 09:21:44;;;;;;;10.80;8.70;;;;;;;;;;5076268;28;20252;-88
2022/12/09 09:24:14;;;;;;;10.82;9.05;;;;;;;;;;5078922;28;20221;-83
2022/12/09 09:26:43;;;;;;;9.60;8.55;;;;;;;;;;5078901;28;20296;-84
2022/12/09 09:29:11;;;;;;;7.63;6.82;;;;;;;;;;5078277;28;20209;-85
2022/12/09 09:31:39;;;;;;;9.32;7.25;;;;;;;;;;5078779;28;20647;-83
2022/12/09 09:34:08;;;;;;;12.43;9.77;;;;;;;;;;5082281;28;20201;-85
2022/12/09 09:36:36;;;;;;;9.15;7.65;;;;;;;;;;5082812;28;20201;-86
2022/12/09 09:39:03;;;;;;;8.27;6.97;;;;;;;;;;5089067;28;20266;-84
2022/12/09 09:41:44;;;;;;;9.98;8.13;;;;;;;;;;5102600;28;20256;-84
2022/12/09 09:44:24;;;;;;;10.70;7.47;;;;;;;;;;5102605;28;20294;-84
2022/12/09 09:46:53;;;;;;;13.88;10.75;;;;;;;;;;5102250;28;20270;-84
2022/12/09 09:49:32;;;;;;;10.13;7.40;;;;;;;;;;5102763;28;20287;-84
2022/12/09 09:52:03;;;;;;;14.35;9.25;;;;;;;;;;5102721;28;20252;-85
2022/12/09 09:54:31;;;;;;;12.25;9.15;;;;;;;;;;5085944;28;20699;-86
2022/12/09 09:57:03;;;;;;;12.90;8.85;;;;;;;;;;5081584;28;20283;-84
2022/12/09 09:59:41;;;;;;;15.00;7.85;;;;;;;;;;5081856;28;20268;-84
2022/12/09 10:02:19;;;;;;;12.57;9.27;;;;;;;;;;5081981;28;20217;-85
2022/12/09 10:05:01;;;;;;;10.90;8.43;;;;;;;;;;5082148;28;20231;-85
2022/12/09 10:07:35;;;;;;;11.15;7.28;;;;;;;;;;5081850;28;20268;-85
2022/12/09 10:10:12;;;;;;;7.10;6.30;;;;;;;;;;5098066;28;20204;-84
2022/12/09 10:13:01;;;;;;;5.72;5.00;;;;;;;;;;5101532;28;20747;-85
2022/12/09 10:15:31;;;;;;;8.25;5.40;;;;;;;;;;5102157;28;20217;-85
2022/12/09 10:18:08;;;;;;;4.40;4.00;;;;;;;;;;5101881;28;20269;-85
2022/12/09 10:20:38;;;;;;;5.82;4.95;;;;;;;;;;5101204;28;20272;-83
2022/12/09 10:23:13;;;;;;;6.43;5.28;;;;;;;;;;5100808;28;20651;-85
2022/12/09 10:25:46;;;;;;;9.07;6.85;;;;;;;;;;5101650;28;20234;-85
2022/12/09 10:28:21;;;;;;;9.95;5.72;;;;;;;;;;5100845;28;20227;-86
2022/12/09 10:30:49;;;;;;;8.32;6.20;;;;;;;;;;5101269;28;20560;-84
2022/12/09 10:33:18;;;;;;;7.75;5.78;;;;;;;;;;5101670;28;20192;-84
2022/12/09 10:35:48;;;;;;;7.80;6.82;;;;;;;;;;5100573;28;20292;-85
2022/12/09 10:38:17;;;;;;;6.30;5.70;;;;;;;;;;5100672;28;20646;-85
2022/12/09 10:40:57;;;;;;;7.22;5.78;;;;;;;;;;5101448;28;20236;-83
2022/12/09 10:43:36;;;;;;;6.25;5.68;;;;;;;;;;5101724;28;20362;-84
2022/12/09 10:46:07;;;;;;;6.47;5.82;;;;;;;;;;5088687;28;20197;-86
2022/12/09 10:48:37;;;;;;;5.20;4.70;;;;;;;;;;5080691;28;20283;-84
2022/12/09 10:51:15;;;;;;;6.63;5.18;;;;;;;;;;5080977;28;20249;-84
2022/12/09 10:53:50;;;;;;;5.07;4.50;;;;;;;;;;5080461;28;20232;-84
2022/12/09 10:56:19;;;;;;;4.47;4.07;;;;;;;;;;5081128;28;20227;-84
2022/12/09 10:58:47;;;;;;;3.60;3.30;;;;;;;;;;5080574;28;20292;-84
2022/12/09 11:01:15;;;;;;;3.35;3.05;;;;;;;;;;5081269;28;20308;-84
2022/12/09 11:03:50;;;;;;;5.22;4.38;;;;;;;;;;5080260;28;20687;-83
2022/12/09 11:06:27;;;;;;;5.75;5.25;;;;;;;;;;5082494;28;20216;-85
2022/12/09 11:08:57;;;;;;;4.57;4.18;;;;;;;;;;5087923;28;20227;-83
2022/12/09 11:11:43;;;;;;;4.47;3.85;;;;;;;;;;5101659;28;20795;-83
2022/12/09 11:14:22;;;;;;;5.75;5.22;;;;;;;;;;5088717;28;20684;-83
2022/12/09 11:16:52;;;;;;;4.80;4.20;;;;;;;;;;5081817;28;20251;-83
2022/12/09 11:19:30;;;;;;;4.35;3.95;;;;;;;;;;5080994;28;20211;-84
2022/12/09 11:22:22;;;;;;;3.55;3.25;;;;;;;;;;5080941;28;20256;-83
2022/12/09 11:24:51;;;;;;;4.05;3.65;;;;;;;;;;5081652;28;20239;-85
2022/12/09 11:27:29;;;;;;;3.92;3.53;;;;;;;;;;5080889;28;20255;-86
2022/12/09 11:30:13;;;;;;;3.83;3.53;;;;;;;;;;5081321;28;20191;-87
2022/12/09 11:32:56;;;;;;;3.92;3.53;;;;;;;;;;5080291;28;20216;-85
2022/12/09 11:35:31;;;;;;;3.95;3.65;;;;;;;;;;5080207;28;20188;-86
2022/12/09 11:38:04;;;;;;;8.43;6.60;;;;;;;;;;5080422;28;20189;-85
2022/12/09 11:40:32;;;;;;;4.75;4.15;;;;;;;;;;5080926;28;20185;-86
2022/12/09 11:43:00;;;;;;;8.27;6.60;;;;;;;;;;5082738;28;20258;-85
2022/12/09 11:45:31;;;;;;;6.65;6.00;;;;;;;;;;5101125;28;20234;-85
2022/12/09 11:48:07;;;;;;;8.80;5.28;;;;;;;;;;5100738;28;20196;-85
2022/12/09 11:50:40;;;;;;;8.57;7.80;;;;;;;;;;5101430;28;20674;-84
2022/12/09 11:53:26;;;;;;;14.07;9.75;;;;;;;;;;5101000;28;20185;-85
2022/12/09 11:56:02;;;;;;;8.88;7.85;;;;;;;;;;5101497;28;20284;-84
2022/12/09 11:58:37;;;;;;;6.78;6.18;;;;;;;;;;5099631;28;20256;-85
2022/12/09 12:01:10;;;;;;;6.10;5.55;;;;;;;;;;5099049;28;20219;-83
2022/12/09 12:03:41;;;;;;;5.63;4.90;;;;;;;;;;5099978;28;20197;-83
2022/12/09 12:06:16;;;;;;;4.30;3.80;;;;;;;;;;5100292;28;20307;-84
2022/12/09 12:08:49;;;;;;;5.90;4.50;;;;;;;;;;5100750;28;20204;-86
2022/12/09 12:11:21;;;;;;;5.80;5.10;;;;;;;;;;5100714;28;20315;-85
2022/12/09 12:13:50;;;;;;;6.70;5.13;;;;;;;;;;5100890;28;20207;-85
2022/12/09 12:16:25;;;;;;;5.55;5.00;;;;;;;;;;5099994;28;20200;-84
2022/12/09 12:19:03;;;;;;;5.40;4.90;;;;;;;;;;5099376;28;20294;-86
2022/12/09 12:21:49;;;;;;;4.47;4.07;;;;;;;;;;5099726;28;20293;-84
2022/12/09 12:24:50;;;;;;;4.47;4.07;;;;;;;;;;5099488;28;20660;-83
2022/12/09 12:27:31;;;;;;;6.50;5.82;;;;;;;;;;5095748;28;20205;-85
2022/12/09 12:30:03;;;;;;;6.40;5.80;;;;;;;;;;5100806;28;20662;-85
2022/12/09 12:32:45;;;;;;;7.10;6.40;;;;;;;;;;5100555;28;20230;-86
2022/12/09 12:35:36;;;;;;;5.40;4.90;;;;;;;;;;5099111;28;20237;-84
2022/12/09 12:38:14;;;;;;;6.90;4.78;;;;;;;;;;5098626;28;20204;-87
2022/12/09 12:40:52;;;;;;;10.18;7.65;;;;;;;;;;5077599;28;20232;-88
2022/12/09 12:46:49;;;;;;;6.82;6.22;;;;;;;;;;5076757;28;20216;-87
2022/12/09 12:50:03;;;;;;;7.85;6.03;;;;;;;;;;5076279;28;20224;-88
2022/12/09 12:52:39;;;;;;;6.47;5.88;;;;;;;;;;5063212;28;20634;-87
2022/12/09 12:55:35;;;;;;;7.82;6.88;;;;;;;;;;5076830;28;20214;-86
2022/12/09 12:58:11;;;;;;;7.45;6.82;;;;;;;;;;5076370;28;20223;-88
2022/12/09 13:00:52;;;;;;;10.43;6.90;;;;;;;;;;5076157;28;20185;-87
2022/12/09 13:03:24;;;;;;;8.43;6.88;;;;;;;;;;5076544;28;20185;-87
2022/12/09 13:05:54;;;;;;;7.45;6.75;;;;;;;;;;5076231;28;20874;-87
2022/12/09 13:08:30;;;;;;;8.70;7.80;;;;;;;;;;5088561;28;20203;-88
2022/12/09 13:11:00;;;;;;;9.73;8.70;;;;;;;;;;5087640;28;20299;-87
2022/12/09 13:13:34;;;;;;;7.72;6.93;;;;;;;;;;5096135;28;20224;-87
2022/12/09 13:16:06;;;;;;;7.30;5.97;;;;;;;;;;5096178;28;20177;-87
2022/12/09 13:18:38;;;;;;;4.65;4.25;;;;;;;;;;5096192;28;20200;-88
2022/12/09 13:21:07;;;;;;;4.60;4.20;;;;;;;;;;5096178;28;20236;-88
2022/12/09 13:23:50;;;;;;;4.18;3.78;;;;;;;;;;5096703;28;20289;-87
2022/12/09 13:26:27;;;;;;;5.38;4.90;;;;;;;;;;5096689;28;20243;-87
2022/12/09 13:29:03;;;;;;;5.72;5.22;;;;;;;;;;5097569;28;20191;-87
2022/12/09 13:31:35;;;;;;;5.88;5.35;;;;;;;;;;5096143;28;20255;-87
2022/12/09 13:34:18;;;;;;;5.15;4.70;;;;;;;;;;5096701;28;20241;-87
2022/12/09 13:36:47;;;;;;;5.45;4.72;;;;;;;;;;5095814;28;20645;-88
2022/12/09 13:39:56;;;;;;;5.93;5.35;;;;;;;;;;5095670;28;20232;-87
2022/12/09 13:42:54;;;;;;;6.05;5.45;;;;;;;;;;5096174;28;20231;-87
2022/12/09 13:45:28;;;;;;;6.10;5.10;;;;;;;;;;5076295;28;20236;-88
2022/12/09 13:47:57;;;;;;;7.15;6.45;;;;;;;;;;5079021;28;20272;-88
2022/12/09 13:50:29;;;;;;;7.75;6.95;;;;;;;;;;5077981;28;20197;-87
2022/12/09 13:53:06;;;;;;;7.60;6.80;;;;;;;;;;5077256;28;20240;-87
2022/12/09 13:55:48;;;;;;;9.98;7.25;;;;;;;;;;5077643;28;20250;-85
2022/12/09 13:58:55;;;;;;;7.43;6.22;;;;;;;;;;5077802;28;20197;-87
2022/12/09 14:01:29;;;;;;;7.00;6.40;;;;;;;;;;5077405;28;20640;-89
2022/12/09 14:04:06;;;;;;;4.85;4.45;;;;;;;;;;5078820;28;20653;-87
2022/12/09 14:06:40;;;;;;;7.25;6.57;;;;;;;;;;5078247;28;20724;-87
2022/12/09 14:09:29;;;;;;;7.93;7.13;;;;;;;;;;5085580;28;20282;-87
2022/12/09 14:11:59;;;;;;;7.22;6.63;;;;;;;;;;5101119;28;20752;-87
2022/12/09 14:14:57;;;;;;;9.02;7.75;;;;;;;;;;5101522;28;20740;-87
2022/12/09 14:18:02;;;;;;;6.53;5.85;;;;;;;;;;5101881;28;20196;-87
2022/12/09 14:20:37;;;;;;;6.93;6.05;;;;;;;;;;5101630;28;20184;-87
2022/12/09 14:23:19;;;;;;;8.00;7.15;;;;;;;;;;5101038;28;20648;-88
2022/12/09 14:26:04;;;;;;;6.35;5.80;;;;;;;;;;5101077;28;20248;-85
2022/12/09 14:28:59;;;;;;;6.43;5.32;;;;;;;;;;5101470;28;20181;-84
2022/12/09 14:31:53;;;;;;;6.47;5.32;;;;;;;;;;5101285;28;20217;-85
2022/12/09 14:34:38;;;;;;;5.78;5.28;;;;;;;;;;5099964;28;20235;-84
2022/12/09 14:37:31;;;;;;;7.85;7.05;;;;;;;;;;5099961;28;20215;-85
2022/12/09 14:40:25;;;;;;;7.10;6.40;;;;;;;;;;5099971;28;20228;-86
2022/12/09 14:43:00;;;;;;;7.18;6.47;;;;;;;;;;5100013;28;20251;-85
2022/12/09 14:45:35;;;;;;;8.85;8.00;;;;;;;;;;5100143;28;20682;-84
2022/12/09 14:48:10;;;;;;;8.93;8.02;;;;;;;;;;5099948;28;20556;-85
2022/12/09 14:50:39;;;;;;;12.10;10.90;;;;;;;;;;5099501;28;20295;-85
2022/12/09 14:53:21;;;;;;;12.02;10.77;;;;;;;;;;5100486;28;20199;-83
2022/12/09 14:55:49;;;;;;;10.70;8.90;;;;;;;;;;5100163;28;20230;-86
2022/12/09 14:58:20;;;;;;;7.80;6.70;;;;;;;;;;5100445;28;20228;-86
2022/12/09 15:00:52;;;;;;;12.57;7.63;;;;;;;;;;5100498;28;20212;-85
2022/12/09 15:03:22;;;;;;;8.18;6.57;;;;;;;;;;5100431;28;20181;-85
2022/12/09 15:06:05;;;;;;;9.38;7.05;;;;;;;;;;5100964;28;20220;-85
2022/12/09 15:08:37;;;;;;;7.93;7.22;;;;;;;;;;5100923;28;20618;-85
2022/12/09 15:11:09;;;;;;;8.95;8.05;;;;;;;;;;5101306;28;20253;-85
2022/12/09 15:13:37;;;;;;;7.88;6.75;;;;;;;;;;5099693;28;20287;-85